KOCW/OCW METAR and TAF weather

Enter ICAO airport designator
Station Type Date Time Source
KOCW METAR 2021/04/13 23:35 UTC NOAA

KOCW 132335Z AUTO 08003KT 10SM CLR 17/09 A3006 RMK AO2 T01730086


Station Type Date Time Source
KOCW Decoded METAR 2021/04/13 23:35 UTC NOAA

Washington, Warren Field Airport, NC, United States (KOCW) 35-34-14N 077-02-59W
Apr 13, 2021 - 07:35 PM EDT / 2021.04.13 2335 UTC
Wind: from the E (080 degrees) at 3 MPH (3 KT):0
Visibility: 10 mile(s):0
Sky conditions: clear
Temperature: 63.1 F (17.3 C)
Dew Point: 47.5 F (8.6 C)
Relative Humidity: 56%
Pressure (altimeter): 30.06 in. Hg (1017 hPa)
ob: KOCW 132335Z AUTO 08003KT 10SM CLR 17/09 A3006 RMK AO2 T01730086
cycle: 23

Station Type Date Time Source
KOCW TAF UTC NOAA

Error!

Example: see airport list